sensor_id;sensor_type;location;lat;lon;timestamp;pressure;altitude;pressure_sealevel;temperature;humidity
17054;BME280;8643;48.824;11.422;2022-08-04T00:02:28;96922.06;;;19.45;76.77
17054;BME280;8643;48.824;11.422;2022-08-04T00:05:04;96925.66;;;19.53;76.51
17054;BME280;8643;48.824;11.422;2022-08-04T00:07:41;96920.47;;;19.44;74.72
17054;BME280;8643;48.824;11.422;2022-08-04T00:10:17;96921.28;;;19.45;75.88
17054;BME280;8643;48.824;11.422;2022-08-04T00:12:54;96918.88;;;19.43;76.92
17054;BME280;8643;48.824;11.422;2022-08-04T00:15:26;96925.22;;;19.44;76.32
17054;BME280;8643;48.824;11.422;2022-08-04T00:18:03;96924.81;;;19.38;76.24
17054;BME280;8643;48.824;11.422;2022-08-04T00:20:40;96925.59;;;19.31;77.41
17054;BME280;8643;48.824;11.422;2022-08-04T00:23:11;96923.06;;;19.08;77.22
17054;BME280;8643;48.824;11.422;2022-08-04T00:25:42;96920.25;;;18.97;78.36
17054;BME280;8643;48.824;11.422;2022-08-04T00:28:15;96928.91;;;18.89;79.49
17054;BME280;8643;48.824;11.422;2022-08-04T00:30:46;96928.59;;;18.97;79.30
17054;BME280;8643;48.824;11.422;2022-08-04T00:33:19;96929.38;;;18.98;78.12
17054;BME280;8643;48.824;11.422;2022-08-04T00:35:49;96929.78;;;19.00;78.22
17054;BME280;8643;48.824;11.422;2022-08-04T00:38:19;96930.53;;;18.97;78.81
17054;BME280;8643;48.824;11.422;2022-08-04T00:41:03;96934.16;;;19.01;79.85
17054;BME280;8643;48.824;11.422;2022-08-04T00:43:48;96933.38;;;19.08;78.54
17054;BME280;8643;48.824;11.422;2022-08-04T00:46:38;96931.06;;;19.20;78.70
17054;BME280;8643;48.824;11.422;2022-08-04T00:58:58;96929.69;;;18.85;81.46
17054;BME280;8643;48.824;11.422;2022-08-04T01:01:50;96926.50;;;18.83;80.89
17054;BME280;8643;48.824;11.422;2022-08-04T01:04:44;96928.59;;;19.01;80.66
17054;BME280;8643;48.824;11.422;2022-08-04T01:07:52;96931.72;;;18.92;79.83
17054;BME280;8643;48.824;11.422;2022-08-04T01:10:40;96924.97;;;18.90;79.32
17054;BME280;8643;48.824;11.422;2022-08-04T01:13:35;96921.69;;;18.80;79.67
17054;BME280;8643;48.824;11.422;2022-08-04T01:16:10;96920.03;;;18.68;80.09
17054;BME280;8643;48.824;11.422;2022-08-04T01:18:52;96923.16;;;18.60;78.91
17054;BME280;8643;48.824;11.422;2022-08-04T01:22:00;96928.75;;;18.67;80.29
17054;BME280;8643;48.824;11.422;2022-08-04T01:25:02;96928.44;;;18.76;79.84
17054;BME280;8643;48.824;11.422;2022-08-04T01:28:03;96922.88;;;18.76;80.38
17054;BME280;8643;48.824;11.422;2022-08-04T01:30:40;96927.94;;;18.63;79.39
17054;BME280;8643;48.824;11.422;2022-08-04T01:33:13;96922.19;;;18.38;79.86
17054;BME280;8643;48.824;11.422;2022-08-04T01:35:50;96922.94;;;18.31;80.56
17054;BME280;8643;48.824;11.422;2022-08-04T01:38:24;96923.84;;;18.49;80.80
17054;BME280;8643;48.824;11.422;2022-08-04T01:41:01;96911.31;;;18.63;81.85
17054;BME280;8643;48.824;11.422;2022-08-04T01:43:34;96916.41;;;18.61;80.73
17054;BME280;8643;48.824;11.422;2022-08-04T01:46:04;96921.47;;;18.48;81.28
17054;BME280;8643;48.824;11.422;2022-08-04T01:48:37;96913.88;;;18.41;81.36
17054;BME280;8643;48.824;11.422;2022-08-04T01:51:08;96915.00;;;18.33;82.63
17054;BME280;8643;48.824;11.422;2022-08-04T01:53:38;96912.31;;;18.40;79.61
17054;BME280;8643;48.824;11.422;2022-08-04T01:56:09;96913.94;;;18.45;80.64
17054;BME280;8643;48.824;11.422;2022-08-04T01:58:40;96913.19;;;18.52;81.26
17054;BME280;8643;48.824;11.422;2022-08-04T02:01:12;96914.84;;;18.60;80.70
17054;BME280;8643;48.824;11.422;2022-08-04T02:03:44;96921.50;;;18.52;81.32
17054;BME280;8643;48.824;11.422;2022-08-04T02:06:48;96914.34;;;18.47;81.32
17054;BME280;8643;48.824;11.422;2022-08-04T02:09:29;96917.97;;;18.55;80.91
17054;BME280;8643;48.824;11.422;2022-08-04T02:12:05;96919.16;;;18.57;80.84
17054;BME280;8643;48.824;11.422;2022-08-04T02:14:58;96922.78;;;18.61;80.30
17054;BME280;8643;48.824;11.422;2022-08-04T02:17:34;96921.16;;;18.57;79.49
17054;BME280;8643;48.824;11.422;2022-08-04T02:20:13;96926.72;;;18.60;80.62
17054;BME280;8643;48.824;11.422;2022-08-04T02:22:50;96923.22;;;18.71;78.83
17054;BME280;8643;48.824;11.422;2022-08-04T02:25:25;96921.34;;;18.85;80.54
17054;BME280;8643;48.824;11.422;2022-08-04T02:28:16;96923.03;;;18.94;80.16
17054;BME280;8643;48.824;11.422;2022-08-04T02:31:05;96916.13;;;18.73;80.77
17054;BME280;8643;48.824;11.422;2022-08-04T02:33:39;96909.69;;;18.62;80.58
17054;BME280;8643;48.824;11.422;2022-08-04T02:36:13;96912.84;;;18.60;80.90
17054;BME280;8643;48.824;11.422;2022-08-04T02:38:55;96923.53;;;18.58;81.29
17054;BME280;8643;48.824;11.422;2022-08-04T02:41:26;96915.66;;;18.64;81.70
17054;BME280;8643;48.824;11.422;2022-08-04T02:43:59;96921.91;;;18.54;83.04
17054;BME280;8643;48.824;11.422;2022-08-04T02:46:29;96913.09;;;18.37;83.53
17054;BME280;8643;48.824;11.422;2022-08-04T02:49:03;96907.09;;;18.31;83.02
17054;BME280;8643;48.824;11.422;2022-08-04T02:51:35;96906.19;;;18.20;82.85
17054;BME280;8643;48.824;11.422;2022-08-04T02:54:06;96900.97;;;18.08;82.20
17054;BME280;8643;48.824;11.422;2022-08-04T02:56:36;96898.59;;;18.10;82.57
17054;BME280;8643;48.824;11.422;2022-08-04T02:59:08;96899.06;;;18.16;82.38
17054;BME280;8643;48.824;11.422;2022-08-04T03:01:38;96890.63;;;18.01;82.40
17054;BME280;8643;48.824;11.422;2022-08-04T03:04:42;96894.75;;;17.84;84.66
17054;BME280;8643;48.824;11.422;2022-08-04T03:07:55;96909.78;;;17.80;84.49
17054;BME280;8643;48.824;11.422;2022-08-04T03:10:58;96895.97;;;17.87;85.00
17054;BME280;8643;48.824;11.422;2022-08-04T03:13:45;96902.03;;;17.96;84.68
17054;BME280;8643;48.824;11.422;2022-08-04T03:17:19;96903.63;;;17.97;85.04
17054;BME280;8643;48.824;11.422;2022-08-04T03:23:39;96903.34;;;17.72;85.88
17054;BME280;8643;48.824;11.422;2022-08-04T03:30:10;96912.28;;;17.58;86.42
17054;BME280;8643;48.824;11.422;2022-08-04T03:33:13;96914.78;;;17.67;86.20
17054;BME280;8643;48.824;11.422;2022-08-04T03:36:33;96923.88;;;17.67;86.08
17054;BME280;8643;48.824;11.422;2022-08-04T03:43:15;96919.81;;;17.57;88.80
17054;BME280;8643;48.824;11.422;2022-08-04T03:49:46;96920.72;;;17.35;88.28
17054;BME280;8643;48.824;11.422;2022-08-04T03:52:42;96920.16;;;17.22;87.64
17054;BME280;8643;48.824;11.422;2022-08-04T03:58:51;96914.97;;;17.17;88.61
17054;BME280;8643;48.824;11.422;2022-08-04T04:04:59;96914.31;;;16.97;88.73
17054;BME280;8643;48.824;11.422;2022-08-04T04:08:15;96905.31;;;16.77;87.92
17054;BME280;8643;48.824;11.422;2022-08-04T04:11:29;96904.63;;;16.83;87.37
17054;BME280;8643;48.824;11.422;2022-08-04T04:14:48;96911.19;;;16.98;88.54
17054;BME280;8643;48.824;11.422;2022-08-04T04:21:25;96903.91;;;17.17;86.08
17054;BME280;8643;48.824;11.422;2022-08-04T04:24:39;96909.69;;;17.38;85.56
17054;BME280;8643;48.824;11.422;2022-08-04T04:27:33;96919.81;;;17.57;84.83
17054;BME280;8643;48.824;11.422;2022-08-04T04:30:08;96925.78;;;17.63;85.07
17054;BME280;8643;48.824;11.422;2022-08-04T04:33:19;96919.94;;;17.68;83.85
17054;BME280;8643;48.824;11.422;2022-08-04T04:36:06;96917.63;;;17.77;85.26
17054;BME280;8643;48.824;11.422;2022-08-04T04:39:10;96911.47;;;17.88;85.68
17054;BME280;8643;48.824;11.422;2022-08-04T04:42:04;96918.69;;;18.00;82.88
17054;BME280;8643;48.824;11.422;2022-08-04T04:45:13;96923.50;;;18.06;84.11
17054;BME280;8643;48.824;11.422;2022-08-04T04:47:55;96921.16;;;18.12;84.14
17054;BME280;8643;48.824;11.422;2022-08-04T04:50:54;96931.56;;;18.22;83.80
17054;BME280;8643;48.824;11.422;2022-08-04T04:53:34;96931.66;;;18.33;82.11
17054;BME280;8643;48.824;11.422;2022-08-04T04:56:16;96928.63;;;18.49;81.81
17054;BME280;8643;48.824;11.422;2022-08-04T04:58:53;96929.88;;;18.59;81.42
17054;BME280;8643;48.824;11.422;2022-08-04T05:01:45;96933.47;;;18.63;82.87
17054;BME280;8643;48.824;11.422;2022-08-04T05:04:52;96930.38;;;18.75;80.65
17054;BME280;8643;48.824;11.422;2022-08-04T05:07:48;96929.72;;;18.89;81.93
17054;BME280;8643;48.824;11.422;2022-08-04T05:10:47;96933.00;;;19.05;79.55
17054;BME280;8643;48.824;11.422;2022-08-04T05:13:33;96939.81;;;19.22;79.94
17054;BME280;8643;48.824;11.422;2022-08-04T05:16:31;96945.44;;;19.40;81.12
17054;BME280;8643;48.824;11.422;2022-08-04T05:19:17;96946.28;;;19.52;79.63
17054;BME280;8643;48.824;11.422;2022-08-04T05:21:55;96944.78;;;19.72;79.74
17054;BME280;8643;48.824;11.422;2022-08-04T05:24:28;96944.44;;;19.81;80.68
17054;BME280;8643;48.824;11.422;2022-08-04T05:27:11;96945.25;;;19.92;78.53
17054;BME280;8643;48.824;11.422;2022-08-04T05:29:54;96939.34;;;20.05;77.82
17054;BME280;8643;48.824;11.422;2022-08-04T05:32:28;96939.75;;;20.25;77.36
17054;BME280;8643;48.824;11.422;2022-08-04T05:35:03;96944.94;;;20.41;76.36
17054;BME280;8643;48.824;11.422;2022-08-04T05:37:37;96941.34;;;20.58;74.92
17054;BME280;8643;48.824;11.422;2022-08-04T05:40:10;96946.13;;;20.79;73.30
17054;BME280;8643;48.824;11.422;2022-08-04T05:42:40;96944.13;;;20.94;72.97
17054;BME280;8643;48.824;11.422;2022-08-04T05:45:12;96946.88;;;21.16;70.06
17054;BME280;8643;48.824;11.422;2022-08-04T05:47:42;96948.81;;;21.33;69.64
17054;BME280;8643;48.824;11.422;2022-08-04T05:50:12;96945.56;;;21.49;69.34
17054;BME280;8643;48.824;11.422;2022-08-04T05:52:41;96947.91;;;21.65;70.23
17054;BME280;8643;48.824;11.422;2022-08-04T05:55:11;96941.47;;;21.83;67.21
17054;BME280;8643;48.824;11.422;2022-08-04T05:58:01;96937.75;;;22.04;68.11
17054;BME280;8643;48.824;11.422;2022-08-04T06:00:33;96949.53;;;22.26;65.71
17054;BME280;8643;48.824;11.422;2022-08-04T06:03:09;96940.66;;;22.49;66.47
17054;BME280;8643;48.824;11.422;2022-08-04T06:05:41;96945.16;;;22.81;63.17
17054;BME280;8643;48.824;11.422;2022-08-04T06:08:09;96946.84;;;23.16;63.28
17054;BME280;8643;48.824;11.422;2022-08-04T06:10:43;96944.84;;;23.51;61.28
17054;BME280;8643;48.824;11.422;2022-08-04T06:13:18;96944.13;;;24.09;62.74
17054;BME280;8643;48.824;11.422;2022-08-04T06:16:12;96946.00;;;24.70;59.92
17054;BME280;8643;48.824;11.422;2022-08-04T06:18:58;96946.75;;;25.18;58.43
17054;BME280;8643;48.824;11.422;2022-08-04T06:21:49;96949.03;;;25.47;54.44
17054;BME280;8643;48.824;11.422;2022-08-04T06:24:25;96945.28;;;25.53;52.69
17054;BME280;8643;48.824;11.422;2022-08-04T06:26:56;96950.41;;;25.78;54.22
17054;BME280;8643;48.824;11.422;2022-08-04T06:29:28;96954.72;;;26.20;56.36
17054;BME280;8643;48.824;11.422;2022-08-04T06:32:05;96945.81;;;26.58;52.21
17054;BME280;8643;48.824;11.422;2022-08-04T06:35:02;96952.75;;;27.02;53.44
17054;BME280;8643;48.824;11.422;2022-08-04T06:37:33;96942.50;;;27.41;52.44
17054;BME280;8643;48.824;11.422;2022-08-04T06:40:12;96945.84;;;27.78;54.95
17054;BME280;8643;48.824;11.422;2022-08-04T06:42:59;96940.22;;;27.66;52.16
17054;BME280;8643;48.824;11.422;2022-08-04T06:45:30;96940.69;;;27.48;50.52
17054;BME280;8643;48.824;11.422;2022-08-04T06:48:04;96948.59;;;27.82;51.03
17054;BME280;8643;48.824;11.422;2022-08-04T06:50:34;96944.59;;;28.09;47.16
17054;BME280;8643;48.824;11.422;2022-08-04T06:53:24;96951.09;;;28.06;46.38
17054;BME280;8643;48.824;11.422;2022-08-04T06:55:53;96945.59;;;28.15;50.57
17054;BME280;8643;48.824;11.422;2022-08-04T06:58:24;96949.34;;;28.38;49.77
17054;BME280;8643;48.824;11.422;2022-08-04T07:00:54;96948.19;;;28.74;49.73
17054;BME280;8643;48.824;11.422;2022-08-04T07:03:30;96953.06;;;28.60;46.91
17054;BME280;8643;48.824;11.422;2022-08-04T07:06:00;96954.59;;;28.35;47.15
17054;BME280;8643;48.824;11.422;2022-08-04T07:08:34;96948.44;;;28.28;44.82
17054;BME280;8643;48.824;11.422;2022-08-04T07:11:04;96952.25;;;28.73;46.71
17054;BME280;8643;48.824;11.422;2022-08-04T07:13:34;96947.66;;;29.01;45.18
17054;BME280;8643;48.824;11.422;2022-08-04T07:16:12;96945.72;;;29.11;46.78
17054;BME280;8643;48.824;11.422;2022-08-04T07:18:42;96946.78;;;29.39;44.14
17054;BME280;8643;48.824;11.422;2022-08-04T07:21:18;96948.28;;;29.53;45.58
17054;BME280;8643;48.824;11.422;2022-08-04T07:23:48;96946.03;;;29.83;46.20
17054;BME280;8643;48.824;11.422;2022-08-04T07:26:17;96939.50;;;29.51;43.82
17054;BME280;8643;48.824;11.422;2022-08-04T07:28:46;96943.72;;;29.68;45.42
17054;BME280;8643;48.824;11.422;2022-08-04T07:31:17;96948.13;;;29.91;47.35
17054;BME280;8643;48.824;11.422;2022-08-04T07:34:03;96950.47;;;29.93;44.97
17054;BME280;8643;48.824;11.422;2022-08-04T07:36:50;96951.34;;;29.80;44.97
17054;BME280;8643;48.824;11.422;2022-08-04T07:39:23;96948.56;;;30.21;45.57
17054;BME280;8643;48.824;11.422;2022-08-04T07:41:57;96954.88;;;30.25;42.20
17054;BME280;8643;48.824;11.422;2022-08-04T07:44:29;96963.31;;;30.47;48.29
17054;BME280;8643;48.824;11.422;2022-08-04T07:46:59;96960.56;;;30.75;45.37
17054;BME280;8643;48.824;11.422;2022-08-04T07:49:29;96959.66;;;30.87;42.92
17054;BME280;8643;48.824;11.422;2022-08-04T07:52:17;96952.16;;;30.94;40.51
17054;BME280;8643;48.824;11.422;2022-08-04T07:54:47;96951.56;;;31.08;45.42
17054;BME280;8643;48.824;11.422;2022-08-04T07:57:17;96950.81;;;31.26;42.88
17054;BME280;8643;48.824;11.422;2022-08-04T08:00:10;96942.78;;;31.43;42.03
17054;BME280;8643;48.824;11.422;2022-08-04T08:02:41;96948.78;;;31.64;42.26
17054;BME280;8643;48.824;11.422;2022-08-04T08:05:14;96950.66;;;31.57;40.40
17054;BME280;8643;48.824;11.422;2022-08-04T08:07:45;96958.63;;;31.87;42.54
17054;BME280;8643;48.824;11.422;2022-08-04T08:10:21;96950.56;;;32.04;42.05
17054;BME280;8643;48.824;11.422;2022-08-04T08:12:50;96944.31;;;32.00;40.84
17054;BME280;8643;48.824;11.422;2022-08-04T08:15:20;96941.69;;;32.39;39.60
17054;BME280;8643;48.824;11.422;2022-08-04T08:17:48;96943.69;;;32.81;40.38
17054;BME280;8643;48.824;11.422;2022-08-04T08:20:29;96941.44;;;32.09;38.93
17054;BME280;8643;48.824;11.422;2022-08-04T08:23:00;96941.50;;;32.76;43.18
17054;BME280;8643;48.824;11.422;2022-08-04T08:25:30;96941.22;;;32.98;42.15
17054;BME280;8643;48.824;11.422;2022-08-04T08:28:02;96938.28;;;33.16;39.69
17054;BME280;8643;48.824;11.422;2022-08-04T08:30:32;96938.16;;;33.50;38.87
17054;BME280;8643;48.824;11.422;2022-08-04T08:33:05;96933.53;;;33.76;40.62
17054;BME280;8643;48.824;11.422;2022-08-04T08:35:48;96938.91;;;33.74;39.96
17054;BME280;8643;48.824;11.422;2022-08-04T08:38:32;96939.03;;;33.95;38.46
17054;BME280;8643;48.824;11.422;2022-08-04T08:41:43;96929.03;;;33.70;38.02
17054;BME280;8643;48.824;11.422;2022-08-04T08:44:55;96934.81;;;33.75;36.87
17054;BME280;8643;48.824;11.422;2022-08-04T08:47:53;96936.53;;;34.47;37.74
17054;BME280;8643;48.824;11.422;2022-08-04T08:51:02;96942.47;;;35.00;34.22
17054;BME280;8643;48.824;11.422;2022-08-04T08:54:02;96943.03;;;34.83;35.22
17054;BME280;8643;48.824;11.422;2022-08-04T08:56:45;96943.06;;;35.45;32.43
17054;BME280;8643;48.824;11.422;2022-08-04T08:59:41;96943.06;;;35.24;33.75
17054;BME280;8643;48.824;11.422;2022-08-04T09:02:48;96946.75;;;34.39;32.63
17054;BME280;8643;48.824;11.422;2022-08-04T09:05:54;96941.00;;;34.69;39.57
17054;BME280;8643;48.824;11.422;2022-08-04T09:08:49;96930.59;;;35.01;35.21
17054;BME280;8643;48.824;11.422;2022-08-04T09:11:25;96940.34;;;34.95;33.78
17054;BME280;8643;48.824;11.422;2022-08-04T09:14:00;96941.50;;;35.03;37.12
17054;BME280;8643;48.824;11.422;2022-08-04T09:16:40;96937.69;;;35.53;32.54
17054;BME280;8643;48.824;11.422;2022-08-04T09:19:17;96939.16;;;35.69;35.16
17054;BME280;8643;48.824;11.422;2022-08-04T09:22:18;96945.59;;;36.16;33.34
17054;BME280;8643;48.824;11.422;2022-08-04T09:24:59;96942.25;;;36.18;32.09
17054;BME280;8643;48.824;11.422;2022-08-04T09:27:42;96949.69;;;36.73;33.94
17054;BME280;8643;48.824;11.422;2022-08-04T09:30:15;96940.75;;;36.92;30.01
17054;BME280;8643;48.824;11.422;2022-08-04T09:33:05;96943.25;;;36.78;31.08
17054;BME280;8643;48.824;11.422;2022-08-04T09:35:46;96936.50;;;36.76;30.65
17054;BME280;8643;48.824;11.422;2022-08-04T09:38:25;96935.69;;;36.38;30.82
17054;BME280;8643;48.824;11.422;2022-08-04T09:40:58;96935.06;;;35.96;30.78
17054;BME280;8643;48.824;11.422;2022-08-04T09:43:57;96939.94;;;36.54;30.53
17054;BME280;8643;48.824;11.422;2022-08-04T09:46:56;96937.59;;;36.84;29.63
17054;BME280;8643;48.824;11.422;2022-08-04T09:49:34;96934.59;;;37.16;32.81
17054;BME280;8643;48.824;11.422;2022-08-04T09:52:15;96927.88;;;37.19;30.08
17054;BME280;8643;48.824;11.422;2022-08-04T09:55:02;96932.81;;;37.90;28.95
17054;BME280;8643;48.824;11.422;2022-08-04T09:57:48;96924.00;;;38.05;27.34
17054;BME280;8643;48.824;11.422;2022-08-04T10:00:19;96917.44;;;36.99;30.42
17054;BME280;8643;48.824;11.422;2022-08-04T10:03:11;96915.84;;;36.98;26.08
17054;BME280;8643;48.824;11.422;2022-08-04T10:06:02;96921.28;;;36.21;28.34
17054;BME280;8643;48.824;11.422;2022-08-04T10:08:55;96916.81;;;36.78;28.79
17054;BME280;8643;48.824;11.422;2022-08-04T10:11:51;96919.31;;;37.19;31.39
17054;BME280;8643;48.824;11.422;2022-08-04T10:14:39;96909.50;;;37.26;30.95
17054;BME280;8643;48.824;11.422;2022-08-04T10:17:30;96912.28;;;37.80;30.93
17054;BME280;8643;48.824;11.422;2022-08-04T10:20:10;96906.84;;;38.22;28.80
17054;BME280;8643;48.824;11.422;2022-08-04T10:23:26;96901.09;;;38.56;25.00
17054;BME280;8643;48.824;11.422;2022-08-04T10:26:30;96900.84;;;37.74;26.94
17054;BME280;8643;48.824;11.422;2022-08-04T10:29:08;96898.78;;;37.81;27.17
17054;BME280;8643;48.824;11.422;2022-08-04T10:31:44;96899.00;;;38.73;26.20
17054;BME280;8643;48.824;11.422;2022-08-04T10:34:19;96893.03;;;38.60;27.08
17054;BME280;8643;48.824;11.422;2022-08-04T10:36:57;96896.88;;;38.91;28.66
17054;BME280;8643;48.824;11.422;2022-08-04T10:39:36;96902.09;;;38.86;25.76
17054;BME280;8643;48.824;11.422;2022-08-04T10:42:31;96890.50;;;39.32;23.09
17054;BME280;8643;48.824;11.422;2022-08-04T10:45:15;96884.66;;;38.90;28.68
17054;BME280;8643;48.824;11.422;2022-08-04T10:47:54;96890.78;;;39.22;25.09
17054;BME280;8643;48.824;11.422;2022-08-04T10:50:28;96885.03;;;38.24;24.78
17054;BME280;8643;48.824;11.422;2022-08-04T10:53:02;96881.09;;;38.10;24.68
17054;BME280;8643;48.824;11.422;2022-08-04T10:55:43;96875.59;;;38.69;25.41
17054;BME280;8643;48.824;11.422;2022-08-04T10:58:41;96871.50;;;37.96;27.01
17054;BME280;8643;48.824;11.422;2022-08-04T11:01:23;96879.38;;;39.17;28.41
17054;BME280;8643;48.824;11.422;2022-08-04T11:04:30;96879.84;;;39.74;25.58
17054;BME280;8643;48.824;11.422;2022-08-04T11:07:04;96871.50;;;39.29;23.31
17054;BME280;8643;48.824;11.422;2022-08-04T11:09:33;96868.88;;;39.31;24.68
17054;BME280;8643;48.824;11.422;2022-08-04T11:12:09;96870.25;;;39.66;25.08
17054;BME280;8643;48.824;11.422;2022-08-04T11:14:51;96866.53;;;39.35;23.43
17054;BME280;8643;48.824;11.422;2022-08-04T11:17:28;96864.22;;;38.46;22.03
17054;BME280;8643;48.824;11.422;2022-08-04T11:20:11;96865.25;;;36.44;24.04
17054;BME280;8643;48.824;11.422;2022-08-04T11:23:07;96863.75;;;35.58;24.77
17054;BME280;8643;48.824;11.422;2022-08-04T11:25:49;96857.50;;;36.50;31.28
17054;BME280;8643;48.824;11.422;2022-08-04T11:28:36;96860.84;;;37.69;25.49
17054;BME280;8643;48.824;11.422;2022-08-04T11:31:11;96859.53;;;38.49;28.10
17054;BME280;8643;48.824;11.422;2022-08-04T11:33:50;96858.09;;;39.48;21.84
17054;BME280;8643;48.824;11.422;2022-08-04T11:36:29;96858.31;;;39.03;24.58
17054;BME280;8643;48.824;11.422;2022-08-04T11:39:07;96859.81;;;38.34;21.65
17054;BME280;8643;48.824;11.422;2022-08-04T11:41:46;96851.94;;;38.57;22.14
17054;BME280;8643;48.824;11.422;2022-08-04T11:44:24;96855.97;;;39.13;22.42
17054;BME280;8643;48.824;11.422;2022-08-04T11:47:01;96854.44;;;39.00;23.17
17054;BME280;8643;48.824;11.422;2022-08-04T11:49:39;96852.28;;;39.65;21.64
17054;BME280;8643;48.824;11.422;2022-08-04T11:52:27;96856.06;;;38.79;20.96
17054;BME280;8643;48.824;11.422;2022-08-04T11:54:58;96848.00;;;39.36;24.73
17054;BME280;8643;48.824;11.422;2022-08-04T11:57:28;96846.50;;;38.65;21.99
17054;BME280;8643;48.824;11.422;2022-08-04T12:00:07;96840.16;;;38.95;23.81
17054;BME280;8643;48.824;11.422;2022-08-04T12:03:07;96844.00;;;37.88;21.71
17054;BME280;8643;48.824;11.422;2022-08-04T12:05:53;96842.84;;;38.70;23.15
17054;BME280;8643;48.824;11.422;2022-08-04T12:08:42;96847.81;;;38.53;23.00
17054;BME280;8643;48.824;11.422;2022-08-04T12:11:27;96840.47;;;39.80;21.35
17054;BME280;8643;48.824;11.422;2022-08-04T12:14:13;96847.03;;;40.05;21.41
17054;BME280;8643;48.824;11.422;2022-08-04T12:16:57;96841.28;;;40.36;23.77
17054;BME280;8643;48.824;11.422;2022-08-04T12:19:34;96841.06;;;40.83;24.66
17054;BME280;8643;48.824;11.422;2022-08-04T12:22:28;96846.06;;;40.27;25.95
17054;BME280;8643;48.824;11.422;2022-08-04T12:25:04;96839.38;;;39.53;21.23
17054;BME280;8643;48.824;11.422;2022-08-04T12:27:39;96834.34;;;38.08;21.06
17054;BME280;8643;48.824;11.422;2022-08-04T12:30:10;96830.44;;;37.71;20.31
17054;BME280;8643;48.824;11.422;2022-08-04T12:33:08;96825.75;;;37.63;24.65
17054;BME280;8643;48.824;11.422;2022-08-04T12:35:50;96819.78;;;38.11;28.03
17054;BME280;8643;48.824;11.422;2022-08-04T12:38:55;96823.63;;;38.65;19.82
17054;BME280;8643;48.824;11.422;2022-08-04T12:41:37;96819.31;;;37.85;19.68
17054;BME280;8643;48.824;11.422;2022-08-04T12:44:11;96820.28;;;37.53;20.06
17054;BME280;8643;48.824;11.422;2022-08-04T12:47:04;96819.03;;;37.83;22.56
17054;BME280;8643;48.824;11.422;2022-08-04T12:49:59;96817.47;;;39.08;21.92
17054;BME280;8643;48.824;11.422;2022-08-04T12:52:32;96808.63;;;38.25;20.32
17054;BME280;8643;48.824;11.422;2022-08-04T12:55:28;96802.16;;;38.19;20.47
17054;BME280;8643;48.824;11.422;2022-08-04T12:57:58;96810.13;;;39.18;24.00
17054;BME280;8643;48.824;11.422;2022-08-04T13:00:33;96803.44;;;40.12;21.24
17054;BME280;8643;48.824;11.422;2022-08-04T13:03:14;96804.53;;;40.83;22.75
17054;BME280;8643;48.824;11.422;2022-08-04T13:05:44;96810.88;;;39.66;21.36
17054;BME280;8643;48.824;11.422;2022-08-04T13:08:19;96798.13;;;39.98;19.69
17054;BME280;8643;48.824;11.422;2022-08-04T13:10:52;96800.78;;;39.54;19.08
17054;BME280;8643;48.824;11.422;2022-08-04T13:13:28;96796.66;;;39.08;19.12
17054;BME280;8643;48.824;11.422;2022-08-04T13:16:02;96797.19;;;39.06;20.95
17054;BME280;8643;48.824;11.422;2022-08-04T13:18:37;96793.38;;;39.70;19.33
17054;BME280;8643;48.824;11.422;2022-08-04T13:21:12;96788.06;;;39.85;19.45
17054;BME280;8643;48.824;11.422;2022-08-04T13:23:49;96784.34;;;40.21;24.10
17054;BME280;8643;48.824;11.422;2022-08-04T13:26:48;96782.81;;;40.20;23.40
17054;BME280;8643;48.824;11.422;2022-08-04T13:29:24;96777.31;;;40.46;18.67
17054;BME280;8643;48.824;11.422;2022-08-04T13:32:19;96774.72;;;39.88;19.80
17054;BME280;8643;48.824;11.422;2022-08-04T13:34:51;96771.03;;;38.79;19.59
17054;BME280;8643;48.824;11.422;2022-08-04T13:37:25;96771.63;;;38.49;20.00
17054;BME280;8643;48.824;11.422;2022-08-04T13:39:58;96773.31;;;37.60;19.91
17054;BME280;8643;48.824;11.422;2022-08-04T13:42:33;96765.00;;;38.19;20.34
17054;BME280;8643;48.824;11.422;2022-08-04T13:45:05;96767.56;;;38.28;20.68
17054;BME280;8643;48.824;11.422;2022-08-04T13:47:39;96764.88;;;39.11;25.53
17054;BME280;8643;48.824;11.422;2022-08-04T13:50:19;96763.38;;;40.07;19.20
17054;BME280;8643;48.824;11.422;2022-08-04T13:52:53;96761.25;;;39.47;19.60
17054;BME280;8643;48.824;11.422;2022-08-04T13:55:29;96755.81;;;39.07;20.04
17054;BME280;8643;48.824;11.422;2022-08-04T13:58:08;96751.91;;;39.10;21.07
17054;BME280;8643;48.824;11.422;2022-08-04T14:00:51;96756.31;;;39.11;20.12
17054;BME280;8643;48.824;11.422;2022-08-04T14:03:26;96761.34;;;38.88;21.03
17054;BME280;8643;48.824;11.422;2022-08-04T14:06:20;96761.56;;;39.43;20.32
17054;BME280;8643;48.824;11.422;2022-08-04T14:08:53;96750.41;;;39.34;20.26
17054;BME280;8643;48.824;11.422;2022-08-04T14:11:33;96751.28;;;39.89;19.95
17054;BME280;8643;48.824;11.422;2022-08-04T14:14:25;96744.19;;;39.96;19.93
17054;BME280;8643;48.824;11.422;2022-08-04T14:17:01;96746.81;;;39.64;22.61
17054;BME280;8643;48.824;11.422;2022-08-04T14:19:51;96737.91;;;38.37;23.49
17054;BME280;8643;48.824;11.422;2022-08-04T14:22:33;96729.81;;;38.41;21.50
17054;BME280;8643;48.824;11.422;2022-08-04T14:25:06;96739.63;;;39.15;20.45
17054;BME280;8643;48.824;11.422;2022-08-04T14:27:44;96726.28;;;39.59;21.86
17054;BME280;8643;48.824;11.422;2022-08-04T14:30:26;96726.66;;;39.45;20.03
17054;BME280;8643;48.824;11.422;2022-08-04T14:32:58;96726.41;;;39.01;21.44
17054;BME280;8643;48.824;11.422;2022-08-04T14:35:57;96718.22;;;38.05;22.05
17054;BME280;8643;48.824;11.422;2022-08-04T14:38:47;96714.91;;;37.78;21.71
17054;BME280;8643;48.824;11.422;2022-08-04T14:41:18;96712.56;;;37.59;22.66
17054;BME280;8643;48.824;11.422;2022-08-04T14:43:50;96711.44;;;38.13;21.72
17054;BME280;8643;48.824;11.422;2022-08-04T14:46:21;96710.09;;;38.31;21.82
17054;BME280;8643;48.824;11.422;2022-08-04T14:49:08;96715.00;;;38.42;23.06
17054;BME280;8643;48.824;11.422;2022-08-04T14:51:40;96710.25;;;38.62;23.19
17054;BME280;8643;48.824;11.422;2022-08-04T14:54:10;96712.94;;;38.31;21.41